sensor_id;sensor_type;location;lat;lon;timestamp;pressure;altitude;pressure_sealevel;temperature;humidity
7906;BME280;13291;40.472;-3.878;2023-05-07T00:00:43;52927.97;;;-139.96;32.50
7906;BME280;13291;40.472;-3.878;2023-05-07T00:03:09;52935.97;;;-139.96;32.51
7906;BME280;13291;40.472;-3.878;2023-05-07T00:05:36;52915.97;;;-139.96;32.31
7906;BME280;13291;40.472;-3.878;2023-05-07T00:08:04;52925.97;;;-139.96;32.40
7906;BME280;13291;40.472;-3.878;2023-05-07T00:10:33;52919.97;;;-139.96;32.55
7906;BME280;13291;40.472;-3.878;2023-05-07T00:12:59;52941.97;;;-139.96;32.49
7906;BME280;13291;40.472;-3.878;2023-05-07T00:15:26;52949.97;;;-139.96;32.74
7906;BME280;13291;40.472;-3.878;2023-05-07T00:17:53;52941.97;;;-139.96;32.49
7906;BME280;13291;40.472;-3.878;2023-05-07T00:20:20;52943.97;;;-139.96;32.68
7906;BME280;13291;40.472;-3.878;2023-05-07T00:22:47;52905.97;;;-139.96;32.68
7906;BME280;13291;40.472;-3.878;2023-05-07T00:25:14;52917.97;;;-139.96;33.05
7906;BME280;13291;40.472;-3.878;2023-05-07T00:27:42;52945.97;;;-139.96;33.42
7906;BME280;13291;40.472;-3.878;2023-05-07T00:30:10;52955.97;;;-139.96;33.20
7906;BME280;13291;40.472;-3.878;2023-05-07T00:32:38;52919.97;;;-139.96;33.40
7906;BME280;13291;40.472;-3.878;2023-05-07T00:35:06;52947.97;;;-139.96;33.42
7906;BME280;13291;40.472;-3.878;2023-05-07T00:37:33;52919.97;;;-139.96;33.66
7906;BME280;13291;40.472;-3.878;2023-05-07T00:40:00;52947.97;;;-139.96;33.93
7906;BME280;13291;40.472;-3.878;2023-05-07T00:42:29;52925.97;;;-139.96;34.09
7906;BME280;13291;40.472;-3.878;2023-05-07T00:44:59;52905.97;;;-139.96;33.74
7906;BME280;13291;40.472;-3.878;2023-05-07T00:47:26;52945.97;;;-139.96;33.89
7906;BME280;13291;40.472;-3.878;2023-05-07T00:49:53;52945.97;;;-139.96;34.48
7906;BME280;13291;40.472;-3.878;2023-05-07T00:52:22;52915.97;;;-139.96;34.37
7906;BME280;13291;40.472;-3.878;2023-05-07T00:54:50;52925.97;;;-139.96;34.45
7906;BME280;13291;40.472;-3.878;2023-05-07T00:57:18;52953.97;;;-139.96;34.63
7906;BME280;13291;40.472;-3.878;2023-05-07T00:59:45;52925.97;;;-139.96;34.95
7906;BME280;13291;40.472;-3.878;2023-05-07T01:02:14;52947.97;;;-139.96;35.07
7906;BME280;13291;40.472;-3.878;2023-05-07T01:04:40;52965.97;;;-139.96;34.79
7906;BME280;13291;40.472;-3.878;2023-05-07T01:07:07;52931.97;;;-139.96;35.24
7906;BME280;13291;40.472;-3.878;2023-05-07T01:09:35;52923.97;;;-139.96;35.10
7906;BME280;13291;40.472;-3.878;2023-05-07T01:12:04;52945.97;;;-139.96;35.30
7906;BME280;13291;40.472;-3.878;2023-05-07T01:14:31;52945.97;;;-139.96;35.33
7906;BME280;13291;40.472;-3.878;2023-05-07T01:16:58;52943.97;;;-139.96;35.69
7906;BME280;13291;40.472;-3.878;2023-05-07T01:19:29;52977.97;;;-139.96;35.63
7906;BME280;13291;40.472;-3.878;2023-05-07T01:22:01;52961.97;;;-139.96;35.75
7906;BME280;13291;40.472;-3.878;2023-05-07T01:24:31;52913.97;;;-139.96;35.52
7906;BME280;13291;40.472;-3.878;2023-05-07T01:26:58;52939.97;;;-139.96;35.84
7906;BME280;13291;40.472;-3.878;2023-05-07T01:29:26;52949.97;;;-139.96;35.59
7906;BME280;13291;40.472;-3.878;2023-05-07T01:31:54;52955.97;;;-139.96;35.87
7906;BME280;13291;40.472;-3.878;2023-05-07T01:34:24;52917.97;;;-139.96;35.53
7906;BME280;13291;40.472;-3.878;2023-05-07T01:36:52;52955.97;;;-139.96;35.53
7906;BME280;13291;40.472;-3.878;2023-05-07T01:39:21;52929.97;;;-139.96;35.44
7906;BME280;13291;40.472;-3.878;2023-05-07T01:41:49;52915.97;;;-139.96;35.42
7906;BME280;13291;40.472;-3.878;2023-05-07T01:44:17;52905.97;;;-139.96;35.82
7906;BME280;13291;40.472;-3.878;2023-05-07T01:46:45;52949.97;;;-139.96;35.82
7906;BME280;13291;40.472;-3.878;2023-05-07T01:49:12;52947.97;;;-139.96;35.79
7906;BME280;13291;40.472;-3.878;2023-05-07T01:51:39;52931.97;;;-139.96;36.00
7906;BME280;13291;40.472;-3.878;2023-05-07T01:54:07;52937.97;;;-139.96;35.66
7906;BME280;13291;40.472;-3.878;2023-05-07T01:56:34;52953.97;;;-139.96;35.75
7906;BME280;13291;40.472;-3.878;2023-05-07T01:59:02;52945.97;;;-139.96;36.01
7906;BME280;13291;40.472;-3.878;2023-05-07T02:01:29;52935.97;;;-139.96;35.95
7906;BME280;13291;40.472;-3.878;2023-05-07T02:03:56;52957.97;;;-139.96;36.22
7906;BME280;13291;40.472;-3.878;2023-05-07T02:06:23;52941.97;;;-139.96;36.33
7906;BME280;13291;40.472;-3.878;2023-05-07T02:08:50;52975.97;;;-139.96;36.13
7906;BME280;13291;40.472;-3.878;2023-05-07T02:11:16;52961.97;;;-139.96;35.59
7906;BME280;13291;40.472;-3.878;2023-05-07T02:13:43;52937.97;;;-139.96;34.91
7906;BME280;13291;40.472;-3.878;2023-05-07T02:16:12;52961.97;;;-139.96;34.88
7906;BME280;13291;40.472;-3.878;2023-05-07T02:18:39;52929.97;;;-139.96;34.86
7906;BME280;13291;40.472;-3.878;2023-05-07T02:21:06;52949.97;;;-139.96;35.14
7906;BME280;13291;40.472;-3.878;2023-05-07T02:23:35;52969.97;;;-139.96;35.49
7906;BME280;13291;40.472;-3.878;2023-05-07T02:26:03;52951.97;;;-139.96;35.31
7906;BME280;13291;40.472;-3.878;2023-05-07T02:28:30;52959.97;;;-139.96;35.67
7906;BME280;13291;40.472;-3.878;2023-05-07T02:30:57;52989.97;;;-139.96;35.83
7906;BME280;13291;40.472;-3.878;2023-05-07T02:33:27;52949.97;;;-139.96;35.95
7906;BME280;13291;40.472;-3.878;2023-05-07T02:35:54;52985.97;;;-139.96;36.20
7906;BME280;13291;40.472;-3.878;2023-05-07T02:38:21;52943.97;;;-139.96;36.34
7906;BME280;13291;40.472;-3.878;2023-05-07T02:40:48;52957.97;;;-139.96;36.65
7906;BME280;13291;40.472;-3.878;2023-05-07T02:43:15;52965.97;;;-139.96;36.05
7906;BME280;13291;40.472;-3.878;2023-05-07T02:45:42;52975.97;;;-139.96;36.25
7906;BME280;13291;40.472;-3.878;2023-05-07T02:48:09;52941.97;;;-139.96;35.83
7906;BME280;13291;40.472;-3.878;2023-05-07T02:50:37;52985.97;;;-139.96;36.09
7906;BME280;13291;40.472;-3.878;2023-05-07T02:53:04;52947.97;;;-139.96;35.90
7906;BME280;13291;40.472;-3.878;2023-05-07T02:55:31;52937.97;;;-139.96;35.84
7906;BME280;13291;40.472;-3.878;2023-05-07T02:57:58;52969.97;;;-139.96;35.70
7906;BME280;13291;40.472;-3.878;2023-05-07T03:00:25;52973.97;;;-139.96;35.57
7906;BME280;13291;40.472;-3.878;2023-05-07T03:02:52;52969.97;;;-139.96;35.71
7906;BME280;13291;40.472;-3.878;2023-05-07T03:05:18;52941.97;;;-139.96;35.49
7906;BME280;13291;40.472;-3.878;2023-05-07T03:07:47;52937.97;;;-139.96;35.89
7906;BME280;13291;40.472;-3.878;2023-05-07T03:10:14;52967.97;;;-139.96;35.57
7906;BME280;13291;40.472;-3.878;2023-05-07T03:12:41;52939.97;;;-139.96;35.44
7906;BME280;13291;40.472;-3.878;2023-05-07T03:15:09;52951.97;;;-139.96;35.26
7906;BME280;13291;40.472;-3.878;2023-05-07T03:17:36;52953.97;;;-139.96;35.56
7906;BME280;13291;40.472;-3.878;2023-05-07T03:20:05;52941.97;;;-139.96;35.62
7906;BME280;13291;40.472;-3.878;2023-05-07T03:22:32;52967.97;;;-139.96;35.71
7906;BME280;13291;40.472;-3.878;2023-05-07T03:25:00;52989.97;;;-139.96;35.35
7906;BME280;13291;40.472;-3.878;2023-05-07T03:27:27;52973.97;;;-139.96;35.48
7906;BME280;13291;40.472;-3.878;2023-05-07T03:29:54;52957.97;;;-139.96;35.75
7906;BME280;13291;40.472;-3.878;2023-05-07T03:32:21;52961.97;;;-139.96;35.49
7906;BME280;13291;40.472;-3.878;2023-05-07T03:34:48;52959.97;;;-139.96;35.61
7906;BME280;13291;40.472;-3.878;2023-05-07T03:37:15;52961.97;;;-139.96;35.72
7906;BME280;13291;40.472;-3.878;2023-05-07T03:39:42;52975.97;;;-139.96;35.67
7906;BME280;13291;40.472;-3.878;2023-05-07T03:42:10;52997.97;;;-139.96;35.83
7906;BME280;13291;40.472;-3.878;2023-05-07T03:44:37;52955.97;;;-139.96;35.90
7906;BME280;13291;40.472;-3.878;2023-05-07T03:47:04;52977.97;;;-139.96;35.84
7906;BME280;13291;40.472;-3.878;2023-05-07T03:49:31;52925.97;;;-139.96;35.87
7906;BME280;13291;40.472;-3.878;2023-05-07T03:51:58;52965.97;;;-139.96;35.79
7906;BME280;13291;40.472;-3.878;2023-05-07T03:54:25;52955.97;;;-139.96;36.15
7906;BME280;13291;40.472;-3.878;2023-05-07T03:56:52;52969.97;;;-139.96;35.96
7906;BME280;13291;40.472;-3.878;2023-05-07T03:59:21;52943.97;;;-139.96;36.17
7906;BME280;13291;40.472;-3.878;2023-05-07T04:01:48;52953.97;;;-139.96;36.49
7906;BME280;13291;40.472;-3.878;2023-05-07T04:04:15;52963.97;;;-139.96;36.44
7906;BME280;13291;40.472;-3.878;2023-05-07T04:06:42;52967.97;;;-139.96;36.51
7906;BME280;13291;40.472;-3.878;2023-05-07T04:09:09;52935.97;;;-139.96;36.66
7906;BME280;13291;40.472;-3.878;2023-05-07T04:11:36;52961.97;;;-139.96;36.88
7906;BME280;13291;40.472;-3.878;2023-05-07T04:14:05;52953.97;;;-139.96;36.94
7906;BME280;13291;40.472;-3.878;2023-05-07T04:16:34;52989.97;;;-139.96;36.86
7906;BME280;13291;40.472;-3.878;2023-05-07T04:19:01;52975.97;;;-139.96;36.56
7906;BME280;13291;40.472;-3.878;2023-05-07T04:21:28;52979.97;;;-139.96;36.73
7906;BME280;13291;40.472;-3.878;2023-05-07T04:23:55;52985.97;;;-139.96;36.77
7906;BME280;13291;40.472;-3.878;2023-05-07T04:26:22;52965.97;;;-139.96;36.76
7906;BME280;13291;40.472;-3.878;2023-05-07T04:28:49;52977.97;;;-139.96;36.65
7906;BME280;13291;40.472;-3.878;2023-05-07T04:31:16;52975.97;;;-139.96;36.76
7906;BME280;13291;40.472;-3.878;2023-05-07T04:33:45;52957.97;;;-139.96;36.83
7906;BME280;13291;40.472;-3.878;2023-05-07T04:36:11;52973.97;;;-139.96;36.85
7906;BME280;13291;40.472;-3.878;2023-05-07T04:38:38;52945.97;;;-139.96;36.75
7906;BME280;13291;40.472;-3.878;2023-05-07T04:41:06;52951.97;;;-139.96;36.76
7906;BME280;13291;40.472;-3.878;2023-05-07T04:43:33;52963.97;;;-139.96;37.11
7906;BME280;13291;40.472;-3.878;2023-05-07T04:46:00;52977.97;;;-139.96;37.20
7906;BME280;13291;40.472;-3.878;2023-05-07T04:48:27;52989.97;;;-139.96;37.21
7906;BME280;13291;40.472;-3.878;2023-05-07T04:50:55;52953.97;;;-139.96;37.37
7906;BME280;13291;40.472;-3.878;2023-05-07T04:53:22;52953.97;;;-139.96;37.59
7906;BME280;13291;40.472;-3.878;2023-05-07T04:55:55;52981.97;;;-139.96;37.35
7906;BME280;13291;40.472;-3.878;2023-05-07T04:58:22;52971.97;;;-139.96;37.31
7906;BME280;13291;40.472;-3.878;2023-05-07T05:00:49;52961.97;;;-139.96;37.58
7906;BME280;13291;40.472;-3.878;2023-05-07T05:03:16;52961.97;;;-139.96;37.54
7906;BME280;13291;40.472;-3.878;2023-05-07T05:05:43;52971.97;;;-139.96;37.56
7906;BME280;13291;40.472;-3.878;2023-05-07T05:08:11;52983.97;;;-139.96;37.38
7906;BME280;13291;40.472;-3.878;2023-05-07T05:10:38;52961.97;;;-139.96;37.48
7906;BME280;13291;40.472;-3.878;2023-05-07T05:13:06;52981.97;;;-139.96;37.55
7906;BME280;13291;40.472;-3.878;2023-05-07T05:15:33;52971.97;;;-139.96;37.46
7906;BME280;13291;40.472;-3.878;2023-05-07T05:18:00;52989.97;;;-139.96;37.54
7906;BME280;13291;40.472;-3.878;2023-05-07T05:20:27;52977.97;;;-139.96;37.88
7906;BME280;13291;40.472;-3.878;2023-05-07T05:22:54;52989.97;;;-139.96;37.80
7906;BME280;13291;40.472;-3.878;2023-05-07T05:25:22;52975.97;;;-139.96;37.97
7906;BME280;13291;40.472;-3.878;2023-05-07T05:27:49;52965.97;;;-139.96;38.20
7906;BME280;13291;40.472;-3.878;2023-05-07T05:30:16;52967.97;;;-139.96;38.11
7906;BME280;13291;40.472;-3.878;2023-05-07T05:32:43;52977.97;;;-139.96;38.07
7906;BME280;13291;40.472;-3.878;2023-05-07T05:35:10;52985.97;;;-139.96;38.06
7906;BME280;13291;40.472;-3.878;2023-05-07T05:37:37;52977.97;;;-139.96;38.16
7906;BME280;13291;40.472;-3.878;2023-05-07T05:40:05;52971.97;;;-139.96;38.06
7906;BME280;13291;40.472;-3.878;2023-05-07T05:42:33;52965.97;;;-139.96;37.88
7906;BME280;13291;40.472;-3.878;2023-05-07T05:45:00;52997.97;;;-139.96;38.25
7906;BME280;13291;40.472;-3.878;2023-05-07T05:47:27;52949.97;;;-139.96;38.16
7906;BME280;13291;40.472;-3.878;2023-05-07T05:49:54;52989.97;;;-139.96;38.04
7906;BME280;13291;40.472;-3.878;2023-05-07T05:52:21;52975.97;;;-139.96;37.93
7906;BME280;13291;40.472;-3.878;2023-05-07T05:54:49;52989.97;;;-139.96;38.07
7906;BME280;13291;40.472;-3.878;2023-05-07T05:57:16;52987.97;;;-139.96;38.39
7906;BME280;13291;40.472;-3.878;2023-05-07T05:59:44;52981.97;;;-139.96;38.35
7906;BME280;13291;40.472;-3.878;2023-05-07T06:02:12;52935.97;;;-139.96;38.62
7906;BME280;13291;40.472;-3.878;2023-05-07T06:04:39;52997.97;;;-139.96;38.53
7906;BME280;13291;40.472;-3.878;2023-05-07T06:07:07;52977.97;;;-139.96;38.44
7906;BME280;13291;40.472;-3.878;2023-05-07T06:09:34;52981.97;;;-139.96;38.31
7906;BME280;13291;40.472;-3.878;2023-05-07T06:12:01;52957.97;;;-139.96;38.34
7906;BME280;13291;40.472;-3.878;2023-05-07T06:14:28;52961.97;;;-139.96;38.41
7906;BME280;13291;40.472;-3.878;2023-05-07T06:16:57;52957.97;;;-139.96;38.38
7906;BME280;13291;40.472;-3.878;2023-05-07T06:19:23;52965.97;;;-139.96;38.81
7906;BME280;13291;40.472;-3.878;2023-05-07T06:21:52;52959.97;;;-139.96;38.41
7906;BME280;13291;40.472;-3.878;2023-05-07T06:24:19;52965.97;;;-139.96;38.35
7906;BME280;13291;40.472;-3.878;2023-05-07T06:26:46;52993.97;;;-139.96;38.90
7906;BME280;13291;40.472;-3.878;2023-05-07T06:29:13;52965.97;;;-139.96;38.90
7906;BME280;13291;40.472;-3.878;2023-05-07T06:31:40;52997.97;;;-139.96;39.05
7906;BME280;13291;40.472;-3.878;2023-05-07T06:34:08;52969.97;;;-139.96;38.99
7906;BME280;13291;40.472;-3.878;2023-05-07T06:36:35;52985.97;;;-139.96;39.02
7906;BME280;13291;40.472;-3.878;2023-05-07T06:39:02;52969.97;;;-139.96;38.95
7906;BME280;13291;40.472;-3.878;2023-05-07T06:41:29;52981.97;;;-139.96;39.02
7906;BME280;13291;40.472;-3.878;2023-05-07T06:43:56;52955.97;;;-139.96;39.24
7906;BME280;13291;40.472;-3.878;2023-05-07T06:46:23;52975.97;;;-139.96;39.29
7906;BME280;13291;40.472;-3.878;2023-05-07T06:48:50;52987.97;;;-139.96;39.38
7906;BME280;13291;40.472;-3.878;2023-05-07T06:51:19;52961.97;;;-139.96;39.21
7906;BME280;13291;40.472;-3.878;2023-05-07T06:53:45;52989.97;;;-139.96;39.14
7906;BME280;13291;40.472;-3.878;2023-05-07T06:56:12;52989.97;;;-139.96;39.17
7906;BME280;13291;40.472;-3.878;2023-05-07T06:58:39;53005.97;;;-139.96;39.05
7906;BME280;13291;40.472;-3.878;2023-05-07T07:01:06;52965.97;;;-139.96;38.90
7906;BME280;13291;40.472;-3.878;2023-05-07T07:03:33;52973.97;;;-139.96;38.94
7906;BME280;13291;40.472;-3.878;2023-05-07T07:06:00;52975.97;;;-139.96;39.09
7906;BME280;13291;40.472;-3.878;2023-05-07T07:08:30;52957.97;;;-139.96;39.29
7906;BME280;13291;40.472;-3.878;2023-05-07T07:10:57;52991.97;;;-139.96;39.29
7906;BME280;13291;40.472;-3.878;2023-05-07T07:13:24;52955.97;;;-139.96;38.77
7906;BME280;13291;40.472;-3.878;2023-05-07T07:15:52;52981.97;;;-139.96;38.27
7906;BME280;13291;40.472;-3.878;2023-05-07T07:18:19;52965.97;;;-139.96;37.68
7906;BME280;13291;40.472;-3.878;2023-05-07T07:20:46;52991.97;;;-139.96;38.09
7906;BME280;13291;40.472;-3.878;2023-05-07T07:23:13;52945.97;;;-139.96;38.67
7906;BME280;13291;40.472;-3.878;2023-05-07T07:25:41;52969.97;;;-139.96;38.16
7906;BME280;13291;40.472;-3.878;2023-05-07T07:28:08;52973.97;;;-139.96;37.89
7906;BME280;13291;40.472;-3.878;2023-05-07T07:30:36;52927.97;;;-139.96;37.88
7906;BME280;13291;40.472;-3.878;2023-05-07T07:33:03;52957.97;;;-139.96;37.82
7906;BME280;13291;40.472;-3.878;2023-05-07T07:35:30;52937.97;;;-139.96;37.48
7906;BME280;13291;40.472;-3.878;2023-05-07T07:37:57;52933.97;;;-139.96;37.48
7906;BME280;13291;40.472;-3.878;2023-05-07T07:40:24;52979.97;;;-139.96;37.47
7906;BME280;13291;40.472;-3.878;2023-05-07T07:42:53;52953.97;;;-139.96;36.82
7906;BME280;13291;40.472;-3.878;2023-05-07T07:45:21;52977.97;;;-139.96;36.97
7906;BME280;13291;40.472;-3.878;2023-05-07T07:47:47;52935.97;;;-139.96;37.37
7906;BME280;13291;40.472;-3.878;2023-05-07T07:50:14;52939.97;;;-139.96;36.76
7906;BME280;13291;40.472;-3.878;2023-05-07T07:52:41;52933.97;;;-139.96;36.18
7906;BME280;13291;40.472;-3.878;2023-05-07T07:55:08;52967.97;;;-139.96;36.99
7906;BME280;13291;40.472;-3.878;2023-05-07T07:57:35;52953.97;;;-139.96;37.00
7906;BME280;13291;40.472;-3.878;2023-05-07T08:00:06;52971.97;;;-139.96;37.13
7906;BME280;13291;40.472;-3.878;2023-05-07T08:02:33;52967.97;;;-139.96;36.14
7906;BME280;13291;40.472;-3.878;2023-05-07T08:05:00;52957.97;;;-139.96;36.56
7906;BME280;13291;40.472;-3.878;2023-05-07T08:07:27;52923.97;;;-139.96;36.61
7906;BME280;13291;40.472;-3.878;2023-05-07T08:09:54;52969.97;;;-139.96;36.92
7906;BME280;13291;40.472;-3.878;2023-05-07T08:12:21;52953.97;;;-139.96;37.34
7906;BME280;13291;40.472;-3.878;2023-05-07T08:14:47;52977.97;;;-139.96;37.09
7906;BME280;13291;40.472;-3.878;2023-05-07T08:17:16;52989.97;;;-139.96;37.05
7906;BME280;13291;40.472;-3.878;2023-05-07T08:19:43;52963.97;;;-139.96;36.89
7906;BME280;13291;40.472;-3.878;2023-05-07T08:22:10;52951.97;;;-139.96;36.49
7906;BME280;13291;40.472;-3.878;2023-05-07T08:24:37;52939.97;;;-139.96;36.44
7906;BME280;13291;40.472;-3.878;2023-05-07T08:27:04;52933.97;;;-139.96;36.54
7906;BME280;13291;40.472;-3.878;2023-05-07T08:29:31;52941.97;;;-139.96;36.66
7906;BME280;13291;40.472;-3.878;2023-05-07T08:31:57;52939.97;;;-139.96;36.54
7906;BME280;13291;40.472;-3.878;2023-05-07T08:34:26;52911.97;;;-139.96;36.27
7906;BME280;13291;40.472;-3.878;2023-05-07T08:36:53;52961.97;;;-139.96;36.37
7906;BME280;13291;40.472;-3.878;2023-05-07T08:39:20;52973.97;;;-139.96;36.54
7906;BME280;13291;40.472;-3.878;2023-05-07T08:41:48;52939.97;;;-139.96;36.29
7906;BME280;13291;40.472;-3.878;2023-05-07T08:44:21;52957.97;;;-139.96;36.41
7906;BME280;13291;40.472;-3.878;2023-05-07T08:46:51;52939.97;;;-139.96;36.68
7906;BME280;13291;40.472;-3.878;2023-05-07T08:49:19;52927.97;;;-139.96;36.30
7906;BME280;13291;40.472;-3.878;2023-05-07T08:51:48;52947.97;;;-139.96;36.58
7906;BME280;13291;40.472;-3.878;2023-05-07T08:54:15;52951.97;;;-139.96;36.74
7906;BME280;13291;40.472;-3.878;2023-05-07T08:56:43;52935.97;;;-139.96;36.47
7906;BME280;13291;40.472;-3.878;2023-05-07T08:59:10;52955.97;;;-139.96;36.51
7906;BME280;13291;40.472;-3.878;2023-05-07T09:01:37;52977.97;;;-139.96;36.22
7906;BME280;13291;40.472;-3.878;2023-05-07T09:04:05;52965.97;;;-139.96;35.55
7906;BME280;13291;40.472;-3.878;2023-05-07T09:06:32;52931.97;;;-139.96;35.70
7906;BME280;13291;40.472;-3.878;2023-05-07T09:09:01;52931.97;;;-139.96;35.73
7906;BME280;13291;40.472;-3.878;2023-05-07T09:11:30;52957.97;;;-139.96;35.41
7906;BME280;13291;40.472;-3.878;2023-05-07T09:13:57;52943.97;;;-139.96;35.44
7906;BME280;13291;40.472;-3.878;2023-05-07T09:16:27;52945.97;;;-139.96;35.60
7906;BME280;13291;40.472;-3.878;2023-05-07T09:18:54;52927.97;;;-139.96;35.84
7906;BME280;13291;40.472;-3.878;2023-05-07T09:21:22;52953.97;;;-139.96;37.61
7906;BME280;13291;40.472;-3.878;2023-05-07T09:23:50;52953.97;;;-139.96;36.73
7906;BME280;13291;40.472;-3.878;2023-05-07T09:26:21;52963.97;;;-139.96;36.25
7906;BME280;13291;40.472;-3.878;2023-05-07T09:28:47;52915.97;;;-139.96;36.45
7906;BME280;13291;40.472;-3.878;2023-05-07T09:31:15;52929.97;;;-139.96;35.95
7906;BME280;13291;40.472;-3.878;2023-05-07T09:33:41;52917.97;;;-139.96;34.65
7906;BME280;13291;40.472;-3.878;2023-05-07T09:36:09;52901.97;;;-139.96;34.23
7906;BME280;13291;40.472;-3.878;2023-05-07T09:38:37;52925.97;;;-139.96;34.50
7906;BME280;13291;40.472;-3.878;2023-05-07T09:41:05;52915.97;;;-139.96;34.84
7906;BME280;13291;40.472;-3.878;2023-05-07T09:43:34;52921.97;;;-139.96;34.41
7906;BME280;13291;40.472;-3.878;2023-05-07T09:46:11;52977.97;;;-139.96;34.83
7906;BME280;13291;40.472;-3.878;2023-05-07T09:48:42;52915.97;;;-139.96;34.60
7906;BME280;13291;40.472;-3.878;2023-05-07T09:51:15;52917.97;;;-139.96;34.57
7906;BME280;13291;40.472;-3.878;2023-05-07T09:53:45;52925.97;;;-139.96;34.47
7906;BME280;13291;40.472;-3.878;2023-05-07T09:56:13;52937.97;;;-139.96;35.09
7906;BME280;13291;40.472;-3.878;2023-05-07T09:58:42;52975.97;;;-139.96;34.95
7906;BME280;13291;40.472;-3.878;2023-05-07T10:01:10;52899.97;;;-139.96;34.63
7906;BME280;13291;40.472;-3.878;2023-05-07T10:03:39;52907.97;;;-139.96;34.41
7906;BME280;13291;40.472;-3.878;2023-05-07T10:06:08;52921.97;;;-139.96;34.59
7906;BME280;13291;40.472;-3.878;2023-05-07T10:08:36;52953.97;;;-139.96;34.64
7906;BME280;13291;40.472;-3.878;2023-05-07T10:11:04;52923.97;;;-139.96;34.11
7906;BME280;13291;40.472;-3.878;2023-05-07T10:13:32;52919.97;;;-139.96;33.97
7906;BME280;13291;40.472;-3.878;2023-05-07T10:16:02;52913.97;;;-139.96;34.19
7906;BME280;13291;40.472;-3.878;2023-05-07T10:18:30;52911.97;;;-139.96;34.05
7906;BME280;13291;40.472;-3.878;2023-05-07T10:21:02;52921.97;;;-139.96;34.44
7906;BME280;13291;40.472;-3.878;2023-05-07T10:23:31;52927.97;;;-139.96;32.19
7906;BME280;13291;40.472;-3.878;2023-05-07T10:26:02;52913.97;;;-139.96;31.70
7906;BME280;13291;40.472;-3.878;2023-05-07T10:28:33;52941.97;;;-139.96;32.82
7906;BME280;13291;40.472;-3.878;2023-05-07T10:31:10;52919.97;;;-139.96;32.58
7906;BME280;13291;40.472;-3.878;2023-05-07T10:33:42;52931.97;;;-139.96;33.47
7906;BME280;13291;40.472;-3.878;2023-05-07T10:36:11;52931.97;;;-139.96;32.96
7906;BME280;13291;40.472;-3.878;2023-05-07T10:38:39;52917.97;;;-139.96;32.50
7906;BME280;13291;40.472;-3.878;2023-05-07T10:41:06;52951.97;;;-139.96;32.94
7906;BME280;13291;40.472;-3.878;2023-05-07T10:43:41;52899.97;;;-139.96;32.01
7906;BME280;13291;40.472;-3.878;2023-05-07T10:46:15;52905.97;;;-139.96;33.56
7906;BME280;13291;40.472;-3.878;2023-05-07T10:49:06;52883.97;;;-139.96;31.66
7906;BME280;13291;40.472;-3.878;2023-05-07T10:51:34;52889.97;;;-139.96;32.28
7906;BME280;13291;40.472;-3.878;2023-05-07T10:54:22;52911.97;;;-139.96;32.59
7906;BME280;13291;40.472;-3.878;2023-05-07T10:56:53;52941.97;;;-139.96;32.96
7906;BME280;13291;40.472;-3.878;2023-05-07T10:59:38;52915.97;;;-139.96;33.21
7906;BME280;13291;40.472;-3.878;2023-05-07T11:02:10;52909.97;;;-139.96;32.85
7906;BME280;13291;40.472;-3.878;2023-05-07T11:04:39;52917.97;;;-139.96;32.38
7906;BME280;13291;40.472;-3.878;2023-05-07T11:07:30;52889.97;;;-139.96;32.85
7906;BME280;13291;40.472;-3.878;2023-05-07T11:10:05;52897.97;;;-139.96;32.70
7906;BME280;13291;40.472;-3.878;2023-05-07T11:12:52;52901.97;;;-139.96;32.63
7906;BME280;13291;40.472;-3.878;2023-05-07T11:15:40;52907.97;;;-139.96;32.83
7906;BME280;13291;40.472;-3.878;2023-05-07T11:18:11;52901.97;;;-139.96;32.64
7906;BME280;13291;40.472;-3.878;2023-05-07T11:20:46;52901.97;;;-139.96;32.61
7906;BME280;13291;40.472;-3.878;2023-05-07T11:26:17;52929.97;;;-139.96;32.17
7906;BME280;13291;40.472;-3.878;2023-05-07T11:28:44;52897.97;;;-139.96;32.10
7906;BME280;13291;40.472;-3.878;2023-05-07T11:31:11;52887.97;;;-139.96;32.34
7906;BME280;13291;40.472;-3.878;2023-05-07T11:33:41;52907.97;;;-139.96;32.89
7906;BME280;13291;40.472;-3.878;2023-05-07T11:36:11;52895.97;;;-139.96;32.38
7906;BME280;13291;40.472;-3.878;2023-05-07T11:38:38;52889.97;;;-139.96;32.65
7906;BME280;13291;40.472;-3.878;2023-05-07T11:41:07;52899.97;;;-139.96;30.79
7906;BME280;13291;40.472;-3.878;2023-05-07T11:43:35;52849.97;;;-139.96;31.50
7906;BME280;13291;40.472;-3.878;2023-05-07T11:46:08;52889.97;;;-139.96;31.05
7906;BME280;13291;40.472;-3.878;2023-05-07T11:48:35;52885.97;;;-139.96;30.77
7906;BME280;13291;40.472;-3.878;2023-05-07T11:51:04;52861.97;;;-139.96;30.67
7906;BME280;13291;40.472;-3.878;2023-05-07T11:53:39;52849.97;;;-139.96;31.27
7906;BME280;13291;40.472;-3.878;2023-05-07T11:56:07;52875.97;;;-139.96;30.97
7906;BME280;13291;40.472;-3.878;2023-05-07T11:58:34;52859.97;;;-139.96;32.12
7906;BME280;13291;40.472;-3.878;2023-05-07T12:01:01;52865.97;;;-139.96;33.05
7906;BME280;13291;40.472;-3.878;2023-05-07T12:03:28;52889.97;;;-139.96;32.05
7906;BME280;13291;40.472;-3.878;2023-05-07T12:05:55;52877.97;;;-139.96;31.55
7906;BME280;13291;40.472;-3.878;2023-05-07T12:08:24;52877.97;;;-139.96;31.37
7906;BME280;13291;40.472;-3.878;2023-05-07T12:10:51;52893.97;;;-139.96;30.49
7906;BME280;13291;40.472;-3.878;2023-05-07T12:13:18;52869.97;;;-139.96;30.96
7906;BME280;13291;40.472;-3.878;2023-05-07T12:15:46;52857.97;;;-139.96;31.08
7906;BME280;13291;40.472;-3.878;2023-05-07T12:18:13;52865.97;;;-139.96;30.10
7906;BME280;13291;40.472;-3.878;2023-05-07T12:20:40;52857.97;;;-139.96;29.86
7906;BME280;13291;40.472;-3.878;2023-05-07T12:23:07;52865.97;;;-139.96;30.34
7906;BME280;13291;40.472;-3.878;2023-05-07T12:25:37;52877.97;;;-139.96;30.32
7906;BME280;13291;40.472;-3.878;2023-05-07T12:28:05;52851.97;;;-139.96;29.93
7906;BME280;13291;40.472;-3.878;2023-05-07T12:30:32;52861.97;;;-139.96;30.55
7906;BME280;13291;40.472;-3.878;2023-05-07T12:32:59;52869.97;;;-139.96;30.10
7906;BME280;13291;40.472;-3.878;2023-05-07T12:35:27;52867.97;;;-139.96;29.95
7906;BME280;13291;40.472;-3.878;2023-05-07T12:37:57;52871.97;;;-139.96;29.81
7906;BME280;13291;40.472;-3.878;2023-05-07T12:40:36;52875.97;;;-139.96;29.98
7906;BME280;13291;40.472;-3.878;2023-05-07T12:43:04;52845.97;;;-139.96;30.62
7906;BME280;13291;40.472;-3.878;2023-05-07T12:45:30;52869.97;;;-139.96;30.28
7906;BME280;13291;40.472;-3.878;2023-05-07T12:48:01;52873.97;;;-139.96;30.08